Cincinnati, OH

6:13 AM EDT on March 28, 2015 (GMT -0400)
Newport Aquarium | | Change Station
CLOSE
Current Station
Personal Weather Station
Location: Newport, KY
Elevation: 499 ft
Nearby Weather Stations

Elev 499 ft 39.09 °N, 84.50 °W | Updated 9 minutes ago

Clear
Clear
23.6 °F
Feels Like 24 °F
N
1.0
Wind Variable Wind from NNE
Gusts 3.0 mph

Today
High -- | Low -- °F
--% Chance of Precip.
Yesterday
High -- | Low -- °F
Precip. -- in
7:29 AM 7:57 PM
First Quarter, 61% visible
Pressure 30.20 in
Visibility 10.0 miles
Clouds Clear
Windchill 24 °F
Dew Point 14 °F
Humidity 65%
Rainfall 0.00 in
Snow Depth Not available.
UV 0 out of 12
Pollen 7.80 out of 12
Air Quality Not available.
Flu Activity Not available.
METAR KLUK 280953Z AUTO 35007KT 10SM CLR M06/M10 A3018 RMK AO2 SLP226 T10611100

More Conditions Fewer Conditions

Pressure 30.20 in
Visibility 10.0 miles
Clouds Clear
Windchill 24 °F
Dew Point 14 °F
Humidity 65%
Rainfall 0.00 in
Snow Depth Not available.
UV 0 out of 12
Pollen 7.80 out of 12
Air Quality Not available.
Flu Activity Not available.
METAR KLUK 280953Z AUTO 35007KT 10SM CLR M06/M10 A3018 RMK AO2 SLP226 T10611100

More Conditions Fewer Conditions

10-Day Weather Forecast

Almanac

Astronomy

Mar. 28, 2015 Rise Set
Actual Time
Civil Twilight
Nautical Twilight
Astronomical Twilight
Moon
Length of Visible Light
Length of Day
Tomorrow will be .
, % of the Moon is Illuminated

Today's Extremes

State Highs State Lows

Community

WunderPhotos

Upload Photos

1,808,946 photos uploaded!

WunderBlogs® & News

Nearby

Air Quality

  Air Quality AQ Index Pollutant
Not available.

Snow Depth

Station Depth Elevation

Earthquake Activity

City Distance Mag. Time & Date
Minimum magnitude displayed is 2.5.

Coastal Water Temperatures

Place Temperature

Stations

Nearby Weather Stations

Station Location Temp. Windchill Dew Point Humidity Wind Precip. Elev Updated Type